Terminal Aerodrome Forecast
Issued by NWS

Home | Current Version | Previous Version | Graphics & Text | Print | Product List | Glossary On
Versions: 1 2 3 4 5 6 7 8 9 10 11 12 13 14 15 16 17 18 19 20 21 22
000
FTUS43 KABR 250438 AAA
TAFMBG
TAF AMD
KMBG 250438Z 2505/2524 25014G30KT P6SM -RA VCTS OVC090CB
     FM250600 27015KT P6SM SHRA OVC090
     FM251500 12008KT P6SM BKN120=

USA.gov is the U.S. government's official web portal to all federal, state and local government web resources and services.